createdAt,value
2019-04-23T00:02:58.550Z,13.40
2019-04-23T00:08:10.241Z,13.10
2019-04-23T00:13:12.805Z,13.20
2019-04-23T00:18:23.830Z,13.10
2019-04-23T00:23:25.795Z,12.90
2019-04-23T00:28:36.045Z,12.80
2019-04-23T00:33:44.818Z,12.70
2019-04-23T00:38:45.464Z,12.70
2019-04-23T00:44:10.294Z,12.70
2019-04-23T00:49:05.578Z,12.40
2019-04-23T00:54:14.458Z,12.20
2019-04-23T00:59:12.591Z,12.10
2019-04-23T01:04:32.722Z,12.00
2019-04-23T01:09:45.801Z,11.90
2019-04-23T01:14:48.138Z,11.60
2019-04-23T01:19:54.828Z,11.70
2019-04-23T01:24:57.800Z,11.60
2019-04-23T01:30:19.702Z,11.60
2019-04-23T01:35:25.495Z,11.70
2019-04-23T01:40:36.606Z,11.40
2019-04-23T01:45:35.590Z,11.40
2019-04-23T01:50:54.631Z,11.40
2019-04-23T01:56:03.045Z,11.40
2019-04-23T02:01:08.676Z,11.30
2019-04-23T02:06:14.685Z,11.30
2019-04-23T02:11:23.198Z,11.30
2019-04-23T02:16:30.636Z,11.10
2019-04-23T02:21:38.409Z,11.00
2019-04-23T02:27:03.649Z,10.80
2019-04-23T02:32:03.234Z,10.70
2019-04-23T02:37:15.668Z,10.60
2019-04-23T02:42:40.061Z,10.70
2019-04-23T02:52:29.006Z,10.90
2019-04-23T02:57:35.265Z,10.90
2019-04-23T03:07:46.018Z,10.80
2019-04-23T03:18:39.272Z,10.50
2019-04-23T03:23:42.212Z,10.70
2019-04-23T03:34:34.955Z,10.50
2019-04-23T03:43:57.142Z,10.50
2019-04-23T03:49:23.455Z,10.60
2019-04-23T04:04:34.981Z,10.60
2019-04-23T04:09:38.750Z,10.60
2019-04-23T04:25:01.479Z,10.40
2019-04-23T04:30:14.483Z,10.40
2019-04-23T04:35:22.080Z,10.40
2019-04-23T04:50:34.719Z,10.40
2019-04-23T04:55:45.097Z,10.70
2019-04-23T05:01:03.936Z,10.70
2019-04-23T05:16:06.157Z,10.30
2019-04-23T05:21:30.495Z,10.20
2019-04-23T05:26:48.065Z,10.20
2019-04-23T05:31:28.094Z,10.20
2019-04-23T05:36:33.905Z,10.40
2019-04-23T05:47:13.300Z,10.50
2019-04-23T05:52:04.479Z,10.50
2019-04-23T05:57:00.628Z,10.80
2019-04-23T06:02:13.202Z,10.80
2019-04-23T06:12:21.593Z,11.20
2019-04-23T06:17:24.978Z,11.20
2019-04-23T06:27:49.490Z,11.30
2019-04-23T06:32:51.304Z,11.40
2019-04-23T06:38:26.121Z,11.40
2019-04-23T06:43:24.260Z,11.50
2019-04-23T06:48:28.753Z,11.60
2019-04-23T06:53:35.991Z,11.60
2019-04-23T06:58:43.729Z,11.70
2019-04-23T07:03:50.678Z,11.80
2019-04-23T07:09:09.946Z,12.00
2019-04-23T07:13:58.645Z,12.00
2019-04-23T07:19:17.705Z,12.10
2019-04-23T07:24:28.416Z,12.10
2019-04-23T07:29:26.302Z,12.30
2019-04-23T07:34:31.921Z,12.50
2019-04-23T07:40:23.013Z,12.50
2019-04-23T07:50:39.387Z,13.10
2019-04-23T08:21:30.601Z,14.00
2019-04-23T08:31:52.385Z,14.20
2019-04-23T08:43:10.997Z,14.40
2019-04-23T08:52:18.258Z,15.00
2019-04-23T08:57:29.301Z,15.50
2019-04-23T09:02:40.251Z,15.50
2019-04-23T09:07:47.961Z,15.40
2019-04-23T09:12:55.249Z,15.20
2019-04-23T09:18:01.416Z,15.30
2019-04-23T09:22:55.083Z,15.40
2019-04-23T09:28:11.520Z,15.40
2019-04-23T09:33:45.313Z,15.50
2019-04-23T09:39:00.277Z,15.40
2019-04-23T09:44:48.631Z,15.90
2019-04-23T09:49:39.457Z,16.30
2019-04-23T09:55:11.701Z,16.20
2019-04-23T10:00:02.612Z,16.20
2019-04-23T10:04:48.710Z,16.20
2019-04-23T10:09:40.540Z,16.40
2019-04-23T10:14:55.102Z,16.50
2019-04-23T10:19:53.122Z,16.50
2019-04-23T10:25:03.446Z,16.90
2019-04-23T10:30:10.080Z,17.20
2019-04-23T10:35:28.617Z,17.10
2019-04-23T10:40:28.034Z,17.40
2019-04-23T10:45:53.352Z,17.60
2019-04-23T10:51:25.992Z,17.60
2019-04-23T10:56:40.091Z,17.90
2019-04-23T11:01:36.312Z,17.90
2019-04-23T11:06:45.060Z,17.80
2019-04-23T11:12:02.192Z,17.90
2019-04-23T11:17:04.586Z,17.80
2019-04-23T11:22:33.028Z,18.20
2019-04-23T11:27:22.596Z,18.10
2019-04-23T11:32:40.901Z,18.10
2019-04-23T11:37:43.849Z,18.10
2019-04-23T11:42:39.339Z,18.20
2019-04-23T11:51:05.753Z,18.50
2019-04-23T11:53:07.040Z,18.70
2019-04-23T12:03:37.375Z,18.60
2019-04-23T12:08:49.311Z,18.70
2019-04-23T12:19:52.659Z,18.40
2019-04-23T12:25:06.579Z,18.30
2019-04-23T12:29:46.258Z,18.20
2019-04-23T12:40:07.587Z,18.40
2019-04-23T13:05:32.730Z,18.80
2019-04-23T13:10:44.137Z,18.70
2019-04-23T13:15:47.995Z,18.60
2019-04-23T13:20:58.580Z,18.50
2019-04-23T13:26:04.190Z,18.60
2019-04-23T13:31:34.567Z,18.70
2019-04-23T13:36:32.965Z,18.60
2019-04-23T13:41:33.518Z,18.60
2019-04-23T13:46:39.882Z,18.70
2019-04-23T13:51:46.783Z,18.50
2019-04-23T13:57:36.599Z,18.50
2019-04-23T14:02:17.611Z,18.60
2019-04-23T14:07:14.898Z,18.80
2019-04-23T14:12:22.347Z,18.90
2019-04-23T14:17:36.399Z,18.90
2019-04-23T14:27:48.801Z,19.00
2019-04-23T14:32:54.130Z,18.80
2019-04-23T14:38:12.929Z,18.80
2019-04-23T14:48:08.902Z,18.70
2019-04-23T15:03:32.364Z,18.70
2019-04-23T15:13:46.771Z,18.70
2019-04-23T15:19:12.993Z,18.70
2019-04-23T15:29:05.287Z,19.00
2019-04-23T15:34:23.159Z,19.00
2019-04-23T15:39:38.119Z,19.00
2019-04-23T15:44:45.369Z,19.10
2019-04-23T15:49:51.551Z,19.10
2019-04-23T15:55:02.324Z,19.10
2019-04-23T16:00:03.459Z,19.10
2019-04-23T16:04:42.258Z,19.30
2019-04-23T16:10:34.207Z,19.30
2019-04-23T16:15:23.154Z,19.20
2019-04-23T16:20:37.306Z,19.30
2019-04-23T16:25:37.870Z,19.10
2019-04-23T16:30:57.461Z,19.20
2019-04-23T16:36:05.274Z,19.30
2019-04-23T16:41:09.878Z,19.10
2019-04-23T16:51:25.222Z,18.90
2019-04-23T16:56:42.765Z,18.90
2019-04-23T17:01:35.373Z,18.80
2019-04-23T17:06:46.594Z,18.80
2019-04-23T17:12:03.036Z,18.60
2019-04-23T17:16:49.046Z,18.60
2019-04-23T17:22:04.257Z,18.50
2019-04-23T17:28:36.875Z,19.10
2019-04-23T17:33:54.547Z,18.70
2019-04-23T18:01:14.570Z,18.10
2019-04-23T18:06:21.659Z,18.10
2019-04-23T18:11:16.033Z,18.00
2019-04-23T18:16:35.423Z,18.10
2019-04-23T18:21:50.649Z,17.80
2019-04-23T18:27:19.148Z,17.90
2019-04-23T18:32:30.205Z,17.80
2019-04-23T18:37:30.038Z,17.70
2019-04-23T18:53:04.581Z,17.90
2019-04-23T19:09:10.713Z,17.90
2019-04-23T19:14:25.661Z,17.60
2019-04-23T19:19:38.231Z,17.60
2019-04-23T19:24:37.441Z,17.70
2019-04-23T19:29:44.058Z,18.00
2019-04-23T19:34:42.307Z,18.00
2019-04-23T19:39:50.119Z,17.90
2019-04-23T19:44:54.410Z,17.90
2019-04-23T19:50:03.852Z,18.00
2019-04-23T19:55:17.053Z,17.90
2019-04-23T20:00:20.143Z,17.70
2019-04-23T20:05:31.136Z,17.80
2019-04-23T20:15:59.495Z,17.50
2019-04-23T20:20:55.079Z,17.60
2019-04-23T20:32:57.976Z,17.50
2019-04-23T20:36:45.925Z,17.50
2019-04-23T21:04:29.421Z,17.00
2019-04-23T21:08:28.541Z,16.90
2019-04-23T21:18:39.581Z,17.10
2019-04-23T21:23:44.123Z,17.20
2019-04-23T21:29:09.562Z,17.20
2019-04-23T21:34:20.644Z,17.10
2019-04-23T21:39:34.347Z,17.00
2019-04-23T21:44:35.890Z,16.90
2019-04-23T21:49:57.850Z,16.90
2019-04-23T21:55:09.516Z,16.50
2019-04-23T22:00:00.594Z,16.50
2019-04-23T22:05:09.268Z,16.60
2019-04-23T22:10:12.124Z,16.70
2019-04-23T22:15:26.625Z,16.50
2019-04-23T22:25:44.271Z,16.50
2019-04-23T22:30:49.598Z,16.50
2019-04-23T22:35:57.472Z,16.50
2019-04-23T22:40:56.277Z,16.50
2019-04-23T22:51:21.081Z,16.50
2019-04-23T22:56:13.774Z,16.60
2019-04-23T23:01:25.975Z,16.40
2019-04-23T23:06:46.626Z,16.30
2019-04-23T23:11:42.929Z,16.20
2019-04-23T23:16:53.203Z,16.30
2019-04-23T23:22:02.026Z,16.20
2019-04-23T23:26:57.149Z,16.20
2019-04-23T23:32:18.780Z,16.00
2019-04-23T23:37:15.575Z,15.80
2019-04-23T23:42:26.552Z,15.90
2019-04-23T23:47:31.686Z,15.70
2019-04-23T23:52:51.631Z,15.90
2019-04-23T23:57:42.765Z,15.90
